Long Lake, New York
Current Conditions -  °F | °C
As of 3:58 PM on Saturday 25 Oct 2014 (Local Time) from KSLK Reporting Station
Light Rain Light Rain  
Wind Chill: 50°   Ceiling: 8000
Heat Index: 50°   Visibility: 10mi
Dew Point: 46°   Wind: 7mph
Humidity: 86%   Direction: 230°SW
Pressure: 29.54"   Gusts: NA
Location:  43.96°N, 74.41°W
Report Text: KSLK 251958Z AUTO 23006KT 10SM -RA SCT030 SCT065 OVC080 10/08 A2954 RMK AO2 P0000 T01000078
Loading
Personal Weather Stations






























Interactive Weather Map
Tropical Storm Tracking
New forecast layout! Learn more

10-Day Weather Forecast

Advertisements
Track Severe Weather on mobile